Time;durP1;ratioP1;P1;durP2;ratioP2;P2;SDS_P1;SDS_P2;PMS_P1;PMS_P2;Temp;Humidity;BMP_temperature;BMP_pressure;BME280_temperature;BME280_humidity;BME280_pressure;Samples;Min_cycle;Max_cycle;Signal;HPM_P1;HPM_P2
2022/03/19 15:27:52;;;;;;;16.90;9.68;;;11.00;88.00;;;;;;5091315;27;20372;-46
2022/03/19 15:30:19;;;;;;;25.35;11.27;;;10.90;87.60;;;;;;5076091;28;20037;-48
2022/03/19 15:32:46;;;;;;;24.10;10.52;;;10.90;87.30;;;;;;5056334;28;20466;-49
2022/03/19 15:35:13;;;;;;;51.08;14.20;;;11.00;86.70;;;;;;5069617;28;20530;-49
2022/03/19 15:37:41;;;;;;;18.30;9.23;;;11.00;86.10;;;;;;5069846;28;20123;-52
2022/03/19 15:40:08;;;;;;;23.77;9.18;;;11.00;87.00;;;;;;5069468;28;20040;-47
2022/03/19 15:42:38;;;;;;;20.95;9.43;;;11.00;86.10;;;;;;5052209;28;20055;-49
2022/03/19 15:45:05;;;;;;;20.33;9.25;;;11.10;85.90;;;;;;5069572;28;20057;-49
2022/03/19 15:47:34;;;;;;;209.32;28.80;;;11.10;85.50;;;;;;5068988;28;20087;-51
2022/03/19 15:50:01;;;;;;;19.52;7.75;;;11.10;85.50;;;;;;5069588;28;20036;-45
2022/03/19 15:52:28;;;;;;;19.00;8.50;;;11.00;84.10;;;;;;5069416;28;20086;-44
2022/03/19 15:54:55;;;;;;;17.88;7.82;;;11.00;84.70;;;;;;5069657;28;20458;-44
2022/03/19 15:57:21;;;;;;;21.63;8.48;;;11.00;83.70;;;;;;5068988;28;20052;-47
2022/03/19 15:59:48;;;;;;;20.08;7.82;;;11.00;84.00;;;;;;5069329;28;20063;-48
2022/03/19 16:02:15;;;;;;;22.23;8.23;;;11.00;83.40;;;;;;5051391;28;20047;-47
2022/03/19 16:04:42;;;;;;;18.58;7.93;;;10.90;82.80;;;;;;5069174;28;20037;-47
2022/03/19 16:07:09;;;;;;;19.02;7.55;;;10.90;82.90;;;;;;5069093;28;20104;-47
2022/03/19 16:09:36;;;;;;;21.67;7.32;;;10.90;83.00;;;;;;5068985;28;20488;-47
2022/03/19 16:12:08;;;;;;;18.42;6.85;;;11.00;83.10;;;;;;5052244;28;20445;-51
2022/03/19 16:14:35;;;;;;;15.40;7.05;;;11.00;82.20;;;;;;5069145;28;20147;-50
2022/03/19 16:17:01;;;;;;;36.80;9.57;;;11.00;81.70;;;;;;5051514;28;20040;-52
2022/03/19 16:19:28;;;;;;;16.52;6.85;;;11.00;80.50;;;;;;5068632;28;20453;-51
2022/03/19 16:21:56;;;;;;;19.08;6.68;;;11.00;80.70;;;;;;5068941;28;20091;-45
2022/03/19 16:24:23;;;;;;;19.60;6.40;;;10.90;81.80;;;;;;5069004;28;20396;-49
2022/03/19 16:26:50;;;;;;;15.88;5.82;;;10.90;80.50;;;;;;5068538;28;20504;-45
2022/03/19 16:29:16;;;;;;;12.90;5.85;;;10.90;80.20;;;;;;5068090;28;20566;-46
2022/03/19 16:31:46;;;;;;;14.15;5.80;;;10.90;80.30;;;;;;5051790;28;20041;-45
2022/03/19 16:34:13;;;;;;;12.32;5.47;;;10.80;78.90;;;;;;5068735;28;20473;-46
2022/03/19 16:36:40;;;;;;;16.13;5.78;;;10.80;78.70;;;;;;5068688;28;20055;-46
2022/03/19 16:39:06;;;;;;;16.70;5.60;;;10.70;78.90;;;;;;5055656;28;20044;-51
2022/03/19 16:41:33;;;;;;;21.13;5.68;;;10.70;79.40;;;;;;5055556;28;20140;-47
2022/03/19 16:44:00;;;;;;;18.77;5.25;;;10.80;79.60;;;;;;5055267;28;20127;-49
2022/03/19 16:46:27;;;;;;;24.42;6.10;;;10.80;79.60;;;;;;5055076;28;20041;-45
2022/03/19 16:48:54;;;;;;;17.70;5.80;;;10.80;78.90;;;;;;5055363;28;20041;-50
2022/03/19 16:51:21;;;;;;;19.63;6.13;;;10.70;79.00;;;;;;5055326;28;20098;-49
2022/03/19 16:53:50;;;;;;;12.18;5.40;;;10.70;79.10;;;;;;5037821;28;20041;-47
2022/03/19 16:56:17;;;;;;;17.17;5.45;;;10.70;79.00;;;;;;5055076;28;20040;-52
2022/03/19 16:58:44;;;;;;;21.02;5.82;;;10.70;79.00;;;;;;5036553;28;20427;-46
2022/03/19 17:01:10;;;;;;;21.70;6.25;;;10.70;78.40;;;;;;5054620;28;20503;-47
2022/03/19 17:03:37;;;;;;;14.55;5.82;;;10.60;77.80;;;;;;5054255;28;20071;-47
2022/03/19 17:06:05;;;;;;;14.80;5.88;;;10.70;78.40;;;;;;5055332;28;20127;-44
2022/03/19 17:08:32;;;;;;;20.42;7.50;;;10.80;77.70;;;;;;5036965;28;20124;-45
2022/03/19 17:11:01;;;;;;;20.08;6.00;;;10.80;77.20;;;;;;5034762;28;20487;-46
2022/03/19 17:13:28;;;;;;;16.30;5.60;;;10.80;77.40;;;;;;5034855;28;20135;-42
2022/03/19 17:15:55;;;;;;;15.27;5.07;;;10.90;77.50;;;;;;5052928;28;20396;-45
2022/03/19 17:18:22;;;;;;;17.67;5.55;;;10.90;78.20;;;;;;5052047;28;20036;-53
2022/03/19 17:20:48;;;;;;;15.40;5.70;;;10.80;77.80;;;;;;5052950;28;20040;-54
2022/03/19 17:23:15;;;;;;;21.75;6.20;;;10.60;77.50;;;;;;5053324;28;20037;-48
2022/03/19 17:25:42;;;;;;;15.95;6.18;;;10.60;78.20;;;;;;5053698;28;20041;-54
2022/03/19 17:28:09;;;;;;;20.33;6.43;;;10.50;78.60;;;;;;5052272;28;20108;-48
2022/03/19 17:30:36;;;;;;;16.20;6.32;;;10.50;78.50;;;;;;5035077;28;20488;-48
2022/03/19 17:33:03;;;;;;;14.88;5.90;;;10.50;78.10;;;;;;5021939;28;20400;-44
2022/03/19 17:35:30;;;;;;;21.13;5.68;;;10.50;78.10;;;;;;5046572;28;20040;-49
2022/03/19 17:37:57;;;;;;;24.67;5.55;;;10.50;77.90;;;;;;5046425;28;20049;-52
2022/03/19 17:40:24;;;;;;;21.02;4.90;;;10.40;77.70;;;;;;5048794;28;20152;-48
2022/03/19 17:42:50;;;;;;;13.73;5.05;;;10.30;77.90;;;;;;5054334;28;20116;-47
2022/03/19 17:45:18;;;;;;;13.02;5.53;;;10.20;77.80;;;;;;5054342;28;20408;-48
2022/03/19 17:47:45;;;;;;;19.73;5.20;;;10.10;78.80;;;;;;5054277;28;20041;-48
2022/03/19 17:50:12;;;;;;;18.15;5.30;;;10.00;78.70;;;;;;5053183;28;20041;-46
2022/03/19 17:52:39;;;;;;;16.63;5.60;;;9.90;78.70;;;;;;5054404;28;20051;-44
2022/03/19 17:55:06;;;;;;;14.50;4.60;;;9.90;79.60;;;;;;5054395;28;20036;-46
2022/03/19 17:57:32;;;;;;;14.77;4.63;;;9.80;79.50;;;;;;5054124;28;20048;-53
2022/03/19 17:59:59;;;;;;;16.17;4.75;;;9.80;79.80;;;;;;5054149;28;20506;-48
2022/03/19 18:02:26;;;;;;;14.23;4.13;;;9.70;80.00;;;;;;5054304;28;20037;-51
2022/03/19 18:04:53;;;;;;;14.73;4.63;;;9.70;80.20;;;;;;5054175;28;20041;-51
2022/03/19 18:07:20;;;;;;;17.55;5.75;;;9.60;80.00;;;;;;5036329;28;20102;-46
2022/03/19 18:09:48;;;;;;;17.00;4.18;;;9.50;80.20;;;;;;5054009;28;20132;-43
2022/03/19 18:12:15;;;;;;;17.98;4.78;;;9.50;80.50;;;;;;5053945;28;20450;-46
2022/03/19 18:14:41;;;;;;;15.63;5.07;;;9.40;81.30;;;;;;5053987;28;20037;-46
2022/03/19 18:17:08;;;;;;;18.25;5.40;;;9.40;81.00;;;;;;5053870;28;20075;-45
2022/03/19 18:19:35;;;;;;;14.95;4.30;;;9.30;81.40;;;;;;5053737;28;20084;-48
2022/03/19 18:22:02;;;;;;;17.52;5.25;;;9.30;81.60;;;;;;5053917;28;20053;-45
2022/03/19 18:24:29;;;;;;;23.08;4.90;;;9.20;81.90;;;;;;5053766;28;20491;-52
2022/03/19 18:26:55;;;;;;;19.98;4.60;;;9.20;82.10;;;;;;5053480;28;20127;-52
2022/03/19 18:29:22;;;;;;;14.88;4.70;;;9.10;82.20;;;;;;5052911;28;20037;-47
2022/03/19 18:31:50;;;;;;;22.58;4.88;;;9.10;82.60;;;;;;5053626;28;20072;-45
2022/03/19 18:34:16;;;;;;;16.63;4.72;;;9.10;82.80;;;;;;5036016;28;20044;-43
2022/03/19 18:36:43;;;;;;;27.17;5.32;;;9.00;83.00;;;;;;5053520;28;20041;-48
2022/03/19 18:39:10;;;;;;;16.67;5.00;;;9.00;83.10;;;;;;5052527;28;20045;-46
2022/03/19 18:41:37;;;;;;;19.73;4.97;;;8.90;83.30;;;;;;5053470;28;20049;-47
2022/03/19 18:44:03;;;;;;;18.05;5.30;;;9.00;83.40;;;;;;5053496;28;20048;-44
2022/03/19 18:46:30;;;;;;;17.83;5.75;;;8.90;83.50;;;;;;5053321;28;20052;-48
2022/03/19 18:48:57;;;;;;;22.80;5.10;;;8.90;84.10;;;;;;5053400;28;20051;-48
2022/03/19 18:51:24;;;;;;;21.80;5.38;;;8.80;84.40;;;;;;5053233;28;20041;-49
2022/03/19 18:53:54;;;;;;;20.95;5.07;;;8.80;84.60;;;;;;5053265;28;20041;-46
2022/03/19 18:56:21;;;;;;;19.90;5.82;;;8.80;85.00;;;;;;5053298;28;20033;-49
2022/03/19 18:58:48;;;;;;;20.63;6.53;;;8.70;85.30;;;;;;5053235;28;20068;-46
2022/03/19 19:01:14;;;;;;;24.50;6.38;;;8.70;85.70;;;;;;5052963;28;20083;-47
2022/03/19 19:03:42;;;;;;;24.17;5.93;;;8.70;86.20;;;;;;5053229;28;20396;-44
2022/03/19 19:06:08;;;;;;;24.85;6.35;;;8.60;86.00;;;;;;5053222;28;20063;-48
2022/03/19 19:08:35;;;;;;;26.13;6.88;;;8.60;86.60;;;;;;5035137;28;20047;-55
2022/03/19 19:11:02;;;;;;;19.98;5.47;;;8.60;86.90;;;;;;5053010;28;20033;-50
2022/03/19 19:13:29;;;;;;;24.33;6.35;;;8.60;87.10;;;;;;5053088;28;20503;-47
2022/03/19 19:15:56;;;;;;;18.35;5.50;;;8.60;87.30;;;;;;5053051;28;20048;-44
2022/03/19 19:18:23;;;;;;;24.80;5.90;;;8.60;87.80;;;;;;5053011;28;20045;-46
2022/03/19 19:20:54;;;;;;;21.73;5.95;;;8.60;88.10;;;;;;5053071;28;20040;-43
2022/03/19 19:23:22;;;;;;;25.80;6.93;;;8.60;88.50;;;;;;5052993;28;20072;-47
2022/03/19 19:25:49;;;;;;;22.20;6.50;;;8.50;88.60;;;;;;5052659;28;20068;-44
2022/03/19 19:28:16;;;;;;;23.83;5.65;;;8.50;89.00;;;;;;5034937;28;20519;-47
2022/03/19 19:30:43;;;;;;;23.42;6.50;;;8.50;89.40;;;;;;5052758;28;20451;-52
2022/03/19 19:33:10;;;;;;;24.05;7.07;;;8.40;89.70;;;;;;5052832;28;20041;-44
2022/03/19 19:35:37;;;;;;;27.08;7.60;;;8.40;89.90;;;;;;5052722;28;20037;-51
2022/03/19 19:38:04;;;;;;;30.23;8.02;;;8.40;90.10;;;;;;5052803;28;20045;-46
2022/03/19 19:40:30;;;;;;;24.40;8.00;;;8.40;90.20;;;;;;5051902;28;20076;-44
2022/03/19 19:42:57;;;;;;;23.33;7.47;;;8.40;90.30;;;;;;5052874;28;20042;-48
2022/03/19 19:45:24;;;;;;;29.20;8.50;;;8.40;90.40;;;;;;5034750;28;20489;-46
2022/03/19 19:47:51;;;;;;;29.55;8.55;;;8.30;90.40;;;;;;5052698;28;20092;-43
2022/03/19 19:50:18;;;;;;;29.98;7.63;;;8.30;90.40;;;;;;5052521;28;20076;-47
2022/03/19 19:52:47;;;;;;;26.17;8.98;;;8.30;90.50;;;;;;5052663;28;20119;-50
2022/03/19 19:55:13;;;;;;;24.90;7.63;;;8.30;90.60;;;;;;5052849;28;20045;-46
2022/03/19 19:58:01;;;;;;;29.67;7.20;;;8.30;90.70;;;;;;5052764;28;20052;-48
2022/03/19 20:00:31;;;;;;;27.58;6.45;;;8.20;90.70;;;;;;5034582;28;20052;-51
2022/03/19 20:02:58;;;;;;;22.88;6.47;;;8.20;90.90;;;;;;5034893;28;20073;-47
2022/03/19 20:05:26;;;;;;;19.70;6.20;;;8.20;90.90;;;;;;5052664;28;20403;-51
2022/03/19 20:07:52;;;;;;;23.75;6.60;;;8.20;90.90;;;;;;5052460;28;20385;-47
2022/03/19 20:10:19;;;;;;;26.48;5.63;;;8.20;91.00;;;;;;5052370;28;20037;-47
2022/03/19 20:12:46;;;;;;;26.25;6.78;;;8.10;91.10;;;;;;5053083;28;20048;-51
2022/03/19 20:15:13;;;;;;;28.40;6.13;;;8.10;91.10;;;;;;5056343;28;20487;-50
2022/03/19 20:17:40;;;;;;;29.05;6.65;;;8.10;91.10;;;;;;5038521;28;20502;-49
2022/03/19 20:20:06;;;;;;;20.17;5.55;;;8.10;91.10;;;;;;5056140;28;20041;-52
2022/03/19 20:22:33;;;;;;;25.50;6.85;;;8.10;91.10;;;;;;5056161;28;20041;-47
2022/03/19 20:25:00;;;;;;;21.63;6.25;;;8.10;91.10;;;;;;5056290;28;20045;-47
2022/03/19 20:27:27;;;;;;;23.52;6.55;;;8.10;91.10;;;;;;5055135;28;20049;-45
2022/03/19 20:29:54;;;;;;;32.03;5.95;;;8.00;91.10;;;;;;5038237;28;20090;-47
2022/03/19 20:32:21;;;;;;;28.70;6.97;;;8.00;90.90;;;;;;5055813;28;20087;-47
2022/03/19 20:34:47;;;;;;;21.95;5.57;;;8.00;90.90;;;;;;5055981;28;20120;-48
2022/03/19 20:37:14;;;;;;;20.23;5.65;;;8.00;90.80;;;;;;5055935;28;20052;-49
2022/03/19 20:39:41;;;;;;;18.08;5.00;;;8.00;90.90;;;;;;5055822;28;20484;-47
2022/03/19 20:42:08;;;;;;;22.13;5.32;;;8.00;90.90;;;;;;5055021;28;20040;-51
2022/03/19 20:44:35;;;;;;;24.85;5.38;;;7.90;90.70;;;;;;5037930;28;20128;-47
2022/03/19 20:47:01;;;;;;;15.90;4.72;;;7.90;90.70;;;;;;5055896;28;20041;-44
2022/03/19 20:52:14;;;;;;;20.38;4.72;;;7.90;90.70;;;;;;5055709;28;20059;-46
2022/03/19 20:54:42;;;;;;;20.15;4.88;;;7.90;90.80;;;;;;5055563;28;20052;-52
2022/03/19 20:57:09;;;;;;;22.85;5.30;;;7.90;90.80;;;;;;5037516;28;20037;-49
2022/03/19 20:59:36;;;;;;;21.25;4.28;;;7.90;90.80;;;;;;5055310;28;20063;-45
2022/03/19 21:02:02;;;;;;;19.83;4.80;;;7.90;90.80;;;;;;5055418;28;20037;-48
2022/03/19 21:04:29;;;;;;;18.55;4.50;;;7.90;90.90;;;;;;5055430;28;20041;-46
2022/03/19 21:06:56;;;;;;;19.70;4.15;;;7.90;91.10;;;;;;5055344;28;20057;-48
2022/03/19 21:09:24;;;;;;;18.90;4.82;;;7.80;91.10;;;;;;5055093;28;20480;-46
2022/03/19 21:11:51;;;;;;;17.38;3.85;;;7.80;91.10;;;;;;5055200;28;20045;-49
2022/03/19 21:14:17;;;;;;;22.42;4.72;;;7.80;91.20;;;;;;5037277;28;20037;-53
2022/03/19 21:16:44;;;;;;;18.45;4.05;;;7.80;91.10;;;;;;5055096;28;20485;-51
2022/03/19 21:19:12;;;;;;;20.15;4.47;;;7.80;91.10;;;;;;5055172;28;20067;-47
2022/03/19 21:21:40;;;;;;;20.65;4.22;;;7.80;91.20;;;;;;5055129;28;20058;-53
2022/03/19 21:24:07;;;;;;;27.90;4.65;;;7.80;91.20;;;;;;5054834;28;20041;-52
2022/03/19 21:26:34;;;;;;;21.17;4.30;;;7.80;91.30;;;;;;5054412;28;20404;-45
2022/03/19 21:29:01;;;;;;;23.15;4.43;;;7.80;91.70;;;;;;5054110;28;20041;-52
2022/03/19 21:31:30;;;;;;;23.35;4.43;;;7.80;91.50;;;;;;5054893;28;20040;-51
2022/03/19 21:33:57;;;;;;;22.30;4.18;;;7.70;91.70;;;;;;5054834;28;20047;-53
2022/03/19 21:36:27;;;;;;;22.58;4.93;;;7.70;91.80;;;;;;5054802;28;20037;-49
2022/03/19 21:41:41;;;;;;;19.75;3.97;;;7.70;92.00;;;;;;5053901;28;20086;-46
2022/03/19 21:44:08;;;;;;;21.08;5.05;;;7.70;92.00;;;;;;5054683;28;20416;-45
2022/03/19 21:46:35;;;;;;;21.52;4.50;;;7.70;92.10;;;;;;5054610;28;20041;-48
2022/03/19 21:49:02;;;;;;;25.17;5.15;;;7.60;92.10;;;;;;5054195;28;20099;-46
2022/03/19 21:51:28;;;;;;;31.65;5.05;;;7.60;92.10;;;;;;5054474;28;20041;-48
2022/03/19 21:53:55;;;;;;;25.17;5.32;;;7.60;92.10;;;;;;5054520;28;20211;-50
2022/03/19 21:56:24;;;;;;;23.25;5.68;;;7.50;92.10;;;;;;5054379;28;20392;-48
2022/03/19 21:58:51;;;;;;;21.95;4.32;;;7.60;92.00;;;;;;5054294;28;20108;-47
2022/03/19 22:01:18;;;;;;;23.85;4.55;;;7.60;91.90;;;;;;5054166;28;20049;-49
2022/03/19 22:03:45;;;;;;;18.73;4.28;;;7.50;92.00;;;;;;5054163;28;20049;-50
2022/03/19 22:06:12;;;;;;;23.60;4.35;;;7.50;92.00;;;;;;5036298;28;20076;-47
2022/03/19 22:08:39;;;;;;;22.80;4.05;;;7.50;92.00;;;;;;5054179;28;20068;-44
2022/03/19 22:11:06;;;;;;;24.67;4.38;;;7.40;91.90;;;;;;5054059;28;20095;-47
2022/03/19 22:13:33;;;;;;;17.05;4.05;;;7.40;91.90;;;;;;5054045;28;20111;-48
2022/03/19 22:16:00;;;;;;;24.85;4.53;;;7.40;91.90;;;;;;5054035;28;20044;-51
2022/03/19 22:18:27;;;;;;;28.38;4.22;;;7.40;91.90;;;;;;5053800;28;20124;-47
2022/03/19 22:20:55;;;;;;;19.30;4.63;;;7.30;91.80;;;;;;5053937;28;20059;-48
2022/03/19 22:23:22;;;;;;;14.98;4.07;;;7.30;91.70;;;;;;5053154;28;20080;-50
2022/03/19 22:25:49;;;;;;;24.00;5.13;;;7.30;91.60;;;;;;5035749;28;20459;-47
2022/03/19 22:28:17;;;;;;;21.92;3.95;;;7.20;91.70;;;;;;5053179;28;20087;-48
2022/03/19 22:30:44;;;;;;;18.42;5.40;;;7.20;91.60;;;;;;5053602;28;20045;-53
2022/03/19 22:33:11;;;;;;;19.88;5.40;;;7.20;91.40;;;;;;5053661;28;20044;-48
2022/03/19 22:35:37;;;;;;;20.10;4.20;;;7.20;91.30;;;;;;5053185;28;20052;-49
2022/03/19 22:38:04;;;;;;;20.02;3.75;;;7.10;91.00;;;;;;5053527;28;20045;-48
2022/03/19 22:40:31;;;;;;;13.18;2.90;;;7.10;90.20;;;;;;5052649;28;20045;-48
2022/03/19 22:42:58;;;;;;;14.38;3.08;;;7.10;89.10;;;;;;5053542;28;20052;-48
2022/03/19 22:45:24;;;;;;;12.82;2.92;;;7.20;87.80;;;;;;5053421;28;20048;-51
2022/03/19 22:47:51;;;;;;;13.43;3.22;;;7.20;87.30;;;;;;5053416;28;20037;-51
2022/03/19 22:50:18;;;;;;;16.85;3.10;;;7.20;86.30;;;;;;5053163;28;20037;-56
2022/03/19 22:52:47;;;;;;;8.85;2.65;;;7.20;84.90;;;;;;5053355;28;20041;-52
2022/03/19 22:55:14;;;;;;;11.77;2.90;;;7.20;83.90;;;;;;5053322;28;20041;-50
2022/03/19 22:57:41;;;;;;;7.55;2.30;;;7.20;83.50;;;;;;5051258;28;20048;-45
2022/03/19 23:00:07;;;;;;;12.02;2.97;;;7.20;82.50;;;;;;5053221;28;20476;-46
2022/03/19 23:02:34;;;;;;;14.48;2.83;;;7.20;82.60;;;;;;5052638;28;20041;-45
2022/03/19 23:05:01;;;;;;;10.18;2.25;;;7.20;82.30;;;;;;5053136;28;20079;-48
2022/03/19 23:07:28;;;;;;;13.20;2.53;;;7.20;81.50;;;;;;5052956;28;20041;-48
2022/03/19 23:09:54;;;;;;;10.85;2.55;;;7.20;81.50;;;;;;5053140;28;20041;-50
2022/03/19 23:12:21;;;;;;;12.43;2.75;;;7.20;81.40;;;;;;5052877;28;20069;-50
2022/03/19 23:14:48;;;;;;;14.05;2.92;;;7.10;82.00;;;;;;5052971;28;20127;-53
2022/03/19 23:17:15;;;;;;;11.50;2.60;;;7.10;81.60;;;;;;5053098;28;20044;-47
2022/03/19 23:19:42;;;;;;;7.95;2.60;;;7.00;81.80;;;;;;5053098;28;20045;-49
2022/03/19 23:22:09;;;;;;;10.18;2.58;;;7.00;81.80;;;;;;5034654;28;20108;-48
2022/03/19 23:24:37;;;;;;;9.65;3.17;;;7.00;81.80;;;;;;5052846;28;20404;-49
2022/03/19 23:27:04;;;;;;;9.18;2.50;;;6.90;81.50;;;;;;5053043;28;20132;-45
2022/03/19 23:29:31;;;;;;;10.15;2.90;;;6.90;81.40;;;;;;5034456;28;20041;-48
2022/03/19 23:31:57;;;;;;;8.57;3.00;;;6.90;81.20;;;;;;5053010;28;20090;-45
2022/03/19 23:34:25;;;;;;;11.05;2.88;;;6.90;81.50;;;;;;5034421;28;20546;-47
2022/03/19 23:36:52;;;;;;;9.65;2.40;;;6.90;80.80;;;;;;5053040;28;20064;-45
2022/03/19 23:39:18;;;;;;;12.52;2.13;;;6.90;81.10;;;;;;5052864;28;20049;-48
2022/03/19 23:41:45;;;;;;;7.25;2.38;;;6.90;81.30;;;;;;5052258;28;20091;-46
2022/03/19 23:44:12;;;;;;;8.15;2.42;;;6.90;81.10;;;;;;5052770;28;20041;-47
2022/03/19 23:46:41;;;;;;;11.27;2.58;;;6.90;80.90;;;;;;5052751;28;20080;-47
2022/03/19 23:49:08;;;;;;;9.45;2.47;;;6.90;81.00;;;;;;5055736;28;20392;-48
2022/03/19 23:51:34;;;;;;;13.88;2.88;;;6.90;81.40;;;;;;5056978;28;20467;-45
2022/03/19 23:54:01;;;;;;;8.80;2.80;;;6.90;80.80;;;;;;5054220;28;20508;-52
2022/03/19 23:56:28;;;;;;;12.30;2.63;;;6.90;80.90;;;;;;5056776;28;20443;-50
2022/03/19 23:58:55;;;;;;;7.88;2.38;;;6.90;81.50;;;;;;5056675;28;20422;-52
